createdAt,value
2018-09-30T00:01:25.221Z,19.64
2018-09-30T00:03:50.689Z,19.63
2018-09-30T00:06:16.183Z,19.63
2018-09-30T00:08:41.684Z,19.64
2018-09-30T00:11:07.164Z,19.63
2018-09-30T00:13:32.639Z,19.64
2018-09-30T00:15:58.129Z,19.64
2018-09-30T00:18:23.601Z,19.63
2018-09-30T00:20:49.070Z,19.63
2018-09-30T00:23:14.562Z,19.63
2018-09-30T00:25:40.034Z,19.62
2018-09-30T00:28:05.531Z,19.62
2018-09-30T00:30:31.027Z,19.62
2018-09-30T00:32:56.499Z,19.63
2018-09-30T00:35:22.003Z,19.62
2018-09-30T00:37:47.471Z,19.62
2018-09-30T00:40:12.936Z,19.62
2018-09-30T00:42:38.410Z,19.63
2018-09-30T00:45:03.911Z,19.63
2018-09-30T00:47:29.402Z,19.63
2018-09-30T00:49:54.890Z,19.64
2018-09-30T00:52:20.366Z,19.63
2018-09-30T00:54:45.834Z,19.62
2018-09-30T00:57:11.317Z,19.63
2018-09-30T00:59:36.784Z,19.62
2018-09-30T01:02:02.255Z,19.63
2018-09-30T01:04:27.725Z,19.61
2018-09-30T01:06:53.230Z,19.62
2018-09-30T01:09:18.731Z,19.62
2018-09-30T01:11:44.226Z,19.62
2018-09-30T01:14:09.692Z,19.62
2018-09-30T01:16:35.166Z,19.61
2018-09-30T01:19:00.632Z,19.61
2018-09-30T01:21:26.129Z,19.62
2018-09-30T01:23:51.601Z,19.62
2018-09-30T01:26:17.083Z,19.61
2018-09-30T01:28:42.628Z,19.61
2018-09-30T01:31:08.129Z,19.61
2018-09-30T01:33:33.599Z,19.61
2018-09-30T01:35:59.068Z,19.61
2018-09-30T01:38:24.565Z,19.61
2018-09-30T01:40:50.036Z,19.60
2018-09-30T01:43:15.535Z,19.59
2018-09-30T01:45:41.136Z,19.59
2018-09-30T01:48:06.634Z,19.61
2018-09-30T01:50:32.104Z,19.61
2018-09-30T01:52:57.599Z,19.60
2018-09-30T01:55:23.090Z,19.61
2018-09-30T01:57:48.557Z,19.60
2018-09-30T02:00:14.033Z,19.59
2018-09-30T02:02:39.540Z,19.60
2018-09-30T02:05:05.032Z,19.60
2018-09-30T02:07:30.528Z,19.60
2018-09-30T02:09:56.018Z,19.59
2018-09-30T02:12:21.519Z,19.59
2018-09-30T02:14:46.999Z,19.59
2018-09-30T02:17:12.482Z,19.58
2018-09-30T02:19:37.984Z,19.58
2018-09-30T02:22:03.490Z,19.58
2018-09-30T02:24:28.952Z,19.58
2018-09-30T02:26:54.465Z,19.58
2018-09-30T02:29:19.960Z,19.58
2018-09-30T02:31:45.450Z,19.57
2018-09-30T02:34:10.926Z,19.58
2018-09-30T02:36:36.400Z,19.58
2018-09-30T02:39:01.869Z,19.58
2018-09-30T02:41:27.338Z,19.58
2018-09-30T02:43:52.809Z,19.57
2018-09-30T02:46:18.304Z,19.57
2018-09-30T02:48:43.777Z,19.58
2018-09-30T02:51:09.272Z,19.57
2018-09-30T02:53:34.763Z,19.58
2018-09-30T02:56:00.252Z,19.58
2018-09-30T02:58:25.745Z,19.57
2018-09-30T03:00:51.239Z,19.57
2018-09-30T03:03:16.727Z,19.56
2018-09-30T03:05:42.221Z,19.57
2018-09-30T03:08:07.696Z,19.57
2018-09-30T03:10:33.210Z,19.56
2018-09-30T03:12:58.708Z,19.57
2018-09-30T03:15:24.178Z,19.56
2018-09-30T03:17:49.691Z,19.56
2018-09-30T03:20:15.183Z,19.56
2018-09-30T03:22:40.682Z,19.55
2018-09-30T03:25:06.148Z,19.56
2018-09-30T03:27:31.639Z,19.56
2018-09-30T03:29:57.110Z,19.55
2018-09-30T03:32:22.602Z,19.56
2018-09-30T03:34:48.076Z,19.55
2018-09-30T03:37:13.570Z,19.55
2018-09-30T03:39:39.201Z,19.55
2018-09-30T03:42:04.564Z,19.55
2018-09-30T03:44:30.027Z,19.55
2018-09-30T03:46:55.541Z,19.55
2018-09-30T03:49:21.038Z,19.55
2018-09-30T03:51:46.535Z,19.55
2018-09-30T03:54:12.027Z,19.55
2018-09-30T03:56:37.626Z,19.55
2018-09-30T03:59:02.970Z,19.55
2018-09-30T04:01:28.444Z,19.55
2018-09-30T04:03:53.941Z,19.55
2018-09-30T04:06:19.487Z,19.54
2018-09-30T04:08:44.974Z,19.55
2018-09-30T04:11:10.471Z,19.54
2018-09-30T04:13:35.940Z,19.55
2018-09-30T04:16:01.404Z,19.55
2018-09-30T04:18:26.949Z,19.56
2018-09-30T04:20:52.446Z,19.56
2018-09-30T04:23:17.914Z,19.57
2018-09-30T04:25:43.410Z,19.57
2018-09-30T04:28:08.886Z,19.59
2018-09-30T04:30:34.360Z,19.59
2018-09-30T04:32:59.828Z,19.59
2018-09-30T04:35:25.292Z,19.58
2018-09-30T04:37:50.790Z,19.59
2018-09-30T04:40:16.289Z,19.59
2018-09-30T04:42:41.819Z,19.60
2018-09-30T04:45:07.288Z,19.61
2018-09-30T04:47:32.802Z,19.61
2018-09-30T04:49:58.371Z,19.61
2018-09-30T04:52:23.795Z,19.61
2018-09-30T04:54:49.299Z,19.64
2018-09-30T04:57:14.800Z,19.66
2018-09-30T04:59:40.285Z,19.67
2018-09-30T05:02:05.777Z,19.67
2018-09-30T05:04:31.327Z,19.66
2018-09-30T05:06:56.769Z,19.66
2018-09-30T05:09:22.261Z,19.65
2018-09-30T05:11:47.763Z,19.65
2018-09-30T05:14:13.253Z,19.63
2018-09-30T05:16:38.725Z,19.64
2018-09-30T05:19:04.198Z,19.63
2018-09-30T05:21:29.703Z,19.64
2018-09-30T05:23:55.200Z,19.64
2018-09-30T05:26:20.695Z,19.66
2018-09-30T05:28:46.165Z,19.67
2018-09-30T05:31:11.699Z,19.67
2018-09-30T05:33:37.163Z,19.66
2018-09-30T05:36:02.643Z,19.65
2018-09-30T05:38:28.138Z,19.65
2018-09-30T05:40:53.643Z,19.66
2018-09-30T05:43:19.137Z,19.66
2018-09-30T05:45:44.647Z,19.65
2018-09-30T05:48:10.119Z,19.65
2018-09-30T05:50:35.585Z,19.65
2018-09-30T05:53:01.064Z,19.65
2018-09-30T05:55:26.529Z,19.65
2018-09-30T05:57:52.054Z,19.64
2018-09-30T06:00:17.520Z,19.65
2018-09-30T06:02:42.989Z,19.65
2018-09-30T06:05:08.461Z,19.65
2018-09-30T06:07:33.952Z,19.64
2018-09-30T06:09:59.457Z,19.65
2018-09-30T06:12:24.925Z,19.65
2018-09-30T06:14:50.397Z,19.65
2018-09-30T06:17:15.867Z,19.65
2018-09-30T06:19:41.367Z,19.66
2018-09-30T06:22:06.837Z,19.66
2018-09-30T06:24:32.320Z,19.66
2018-09-30T06:26:57.819Z,19.67
2018-09-30T06:29:23.296Z,19.67
2018-09-30T06:31:48.980Z,19.69
2018-09-30T06:34:14.449Z,19.69
2018-09-30T06:36:40.117Z,19.71
2018-09-30T06:39:05.594Z,19.69
2018-09-30T06:41:31.149Z,19.70
2018-09-30T06:43:56.645Z,19.70
2018-09-30T06:46:22.143Z,19.69
2018-09-30T06:48:47.622Z,19.68
2018-09-30T06:51:13.098Z,19.68
2018-09-30T06:53:38.569Z,19.68
2018-09-30T06:56:04.063Z,19.68
2018-09-30T06:58:29.635Z,19.68
2018-09-30T07:00:55.211Z,19.70
2018-09-30T07:03:20.691Z,19.70
2018-09-30T07:05:46.184Z,19.68
2018-09-30T07:08:11.666Z,19.68
2018-09-30T07:10:37.192Z,19.68
2018-09-30T07:13:02.640Z,19.70
2018-09-30T07:15:28.120Z,19.71
2018-09-30T07:17:53.623Z,19.73
2018-09-30T07:20:19.127Z,19.72
2018-09-30T07:22:44.650Z,19.72
2018-09-30T07:25:10.075Z,19.72
2018-09-30T07:27:35.582Z,19.71
2018-09-30T07:30:01.075Z,19.70
2018-09-30T07:32:26.556Z,19.71
2018-09-30T07:34:52.029Z,19.74
2018-09-30T07:37:17.514Z,19.76
2018-09-30T07:39:43.029Z,19.77
2018-09-30T07:42:08.527Z,19.76
2018-09-30T07:44:34.021Z,19.77
2018-09-30T07:46:59.490Z,19.76
2018-09-30T07:49:24.959Z,19.74
2018-09-30T07:51:50.470Z,19.77
2018-09-30T07:54:15.944Z,19.75
2018-09-30T07:56:41.484Z,19.76
2018-09-30T07:59:06.956Z,19.76
2018-09-30T08:01:32.432Z,19.75
2018-09-30T08:03:57.912Z,19.73
2018-09-30T08:06:23.563Z,19.74
2018-09-30T08:08:49.097Z,19.74
2018-09-30T08:11:14.584Z,19.75
2018-09-30T08:13:40.084Z,19.74
2018-09-30T08:16:05.558Z,19.73
2018-09-30T08:18:31.050Z,19.72
2018-09-30T08:20:56.529Z,19.72
2018-09-30T08:23:22.008Z,19.73
2018-09-30T08:25:47.499Z,19.74
2018-09-30T08:28:12.969Z,19.76
2018-09-30T08:30:38.524Z,19.74
2018-09-30T08:33:03.981Z,19.73
2018-09-30T08:35:29.477Z,19.73
2018-09-30T08:37:54.984Z,19.72
2018-09-30T08:40:20.454Z,19.72
2018-09-30T08:42:45.958Z,19.71
2018-09-30T08:45:11.431Z,19.71
2018-09-30T08:47:36.997Z,19.70
2018-09-30T08:50:02.433Z,19.71
2018-09-30T08:52:27.906Z,19.70
2018-09-30T08:54:56.130Z,19.70
2018-09-30T08:57:22.365Z,19.69
2018-09-30T08:59:47.847Z,19.70
2018-09-30T09:02:13.363Z,19.69
2018-09-30T09:04:38.871Z,19.68
2018-09-30T09:07:05.921Z,19.68
2018-09-30T09:09:31.493Z,19.68
2018-09-30T09:11:56.992Z,19.68
2018-09-30T09:14:22.462Z,19.67
2018-09-30T09:16:47.941Z,19.67
2018-09-30T09:19:13.425Z,19.67
2018-09-30T09:21:38.940Z,19.66
2018-09-30T09:24:04.418Z,19.65
2018-09-30T09:26:29.902Z,19.64
2018-09-30T09:28:55.560Z,19.66
2018-09-30T09:31:21.032Z,19.65
2018-09-30T09:33:46.541Z,19.66
2018-09-30T09:36:12.042Z,19.66
2018-09-30T09:38:37.542Z,19.66
2018-09-30T09:41:03.021Z,19.66
2018-09-30T09:43:28.488Z,19.66
2018-09-30T09:45:54.019Z,19.66
2018-09-30T09:48:19.510Z,19.64
2018-09-30T09:50:44.979Z,19.65
2018-09-30T09:53:11.607Z,19.64
2018-09-30T09:55:37.074Z,19.64
2018-09-30T09:58:02.552Z,19.64
2018-09-30T10:00:28.084Z,19.64
2018-09-30T10:02:53.581Z,19.64
2018-09-30T10:05:19.091Z,19.64
2018-09-30T10:07:44.592Z,19.64
2018-09-30T10:10:10.095Z,19.63
2018-09-30T10:12:35.574Z,19.64
2018-09-30T10:15:01.053Z,19.64
2018-09-30T10:17:26.545Z,19.63
2018-09-30T10:19:52.081Z,19.63
2018-09-30T10:22:17.496Z,19.63
2018-09-30T10:24:42.990Z,19.63
2018-09-30T10:27:08.482Z,19.63
2018-09-30T10:29:33.987Z,19.63
2018-09-30T10:31:59.487Z,19.63
2018-09-30T10:34:24.978Z,19.62
2018-09-30T10:36:50.458Z,19.63
2018-09-30T10:39:16.116Z,19.63
2018-09-30T10:41:41.422Z,19.62
2018-09-30T10:44:06.921Z,19.61
2018-09-30T10:46:32.391Z,19.61
2018-09-30T10:48:57.895Z,19.60
2018-09-30T10:51:23.441Z,19.60
2018-09-30T10:53:48.940Z,19.60
2018-09-30T10:56:14.432Z,19.62
2018-09-30T10:58:39.939Z,19.64
2018-09-30T11:01:05.422Z,19.64
2018-09-30T11:03:30.971Z,19.65
2018-09-30T11:05:56.401Z,19.65
2018-09-30T11:08:21.871Z,19.67
2018-09-30T11:10:47.371Z,19.66
2018-09-30T11:13:12.867Z,19.67
2018-09-30T11:15:38.336Z,19.67
2018-09-30T11:18:03.869Z,19.68
2018-09-30T11:20:29.488Z,19.68
2018-09-30T11:22:54.982Z,19.67
2018-09-30T11:25:20.475Z,19.68
2018-09-30T11:27:45.958Z,19.68
2018-09-30T11:30:11.454Z,19.68
2018-09-30T11:32:36.922Z,19.68
2018-09-30T11:35:02.419Z,19.68
2018-09-30T11:37:27.912Z,19.69
2018-09-30T11:39:53.418Z,19.69
2018-09-30T11:42:18.885Z,19.70
2018-09-30T11:44:44.389Z,19.67
2018-09-30T11:47:09.910Z,19.67
2018-09-30T11:49:35.386Z,19.67
2018-09-30T11:52:00.862Z,19.66
2018-09-30T11:54:26.345Z,19.66
2018-09-30T11:56:51.842Z,19.65
2018-09-30T11:59:17.326Z,19.66
2018-09-30T12:01:42.824Z,19.67
2018-09-30T12:04:08.319Z,19.70
2018-09-30T12:06:33.816Z,19.73
2018-09-30T12:08:59.292Z,19.75
2018-09-30T12:11:24.792Z,19.77
2018-09-30T12:13:50.343Z,19.76
2018-09-30T12:16:15.837Z,19.75
2018-09-30T12:18:43.650Z,19.75
2018-09-30T12:21:09.051Z,19.78
2018-09-30T12:23:34.554Z,19.79
2018-09-30T12:26:00.057Z,19.79
2018-09-30T12:28:25.558Z,19.77
2018-09-30T12:30:51.096Z,19.77
2018-09-30T12:33:16.583Z,19.76
2018-09-30T12:35:42.053Z,19.75
2018-09-30T12:38:07.558Z,19.75
2018-09-30T12:40:33.044Z,19.75
2018-09-30T12:42:58.516Z,19.75
2018-09-30T12:45:24.017Z,19.77
2018-09-30T12:47:49.625Z,19.77
2018-09-30T12:50:15.111Z,19.79
2018-09-30T12:52:40.645Z,19.77
2018-09-30T12:55:06.143Z,19.77
2018-09-30T12:57:31.637Z,19.76
2018-09-30T12:59:57.309Z,19.77
2018-09-30T13:02:22.798Z,19.78
2018-09-30T13:04:48.295Z,19.76
2018-09-30T13:07:13.771Z,19.75
2018-09-30T13:09:39.622Z,19.74
2018-09-30T13:12:05.135Z,19.74
2018-09-30T13:14:30.606Z,19.74
2018-09-30T13:16:56.076Z,19.73
2018-09-30T13:19:21.584Z,19.72
2018-09-30T13:21:47.062Z,19.73
2018-09-30T13:24:12.577Z,19.73
2018-09-30T13:26:38.048Z,19.73
2018-09-30T13:29:03.550Z,19.73
2018-09-30T13:31:29.050Z,19.74
2018-09-30T13:33:54.556Z,19.75
2018-09-30T13:36:20.363Z,19.75
2018-09-30T13:38:45.859Z,19.75
2018-09-30T13:41:11.498Z,19.74
2018-09-30T13:43:36.850Z,19.74
2018-09-30T13:46:02.707Z,19.74
2018-09-30T13:48:28.155Z,19.74
2018-09-30T13:50:53.710Z,19.73
2018-09-30T13:53:19.161Z,19.73
2018-09-30T13:55:44.747Z,19.73
2018-09-30T13:58:10.378Z,19.73
2018-09-30T14:00:35.851Z,19.74
2018-09-30T14:03:01.348Z,19.74
2018-09-30T14:05:27.137Z,19.74
2018-09-30T14:07:52.610Z,19.73
2018-09-30T14:10:18.106Z,19.72
2018-09-30T14:12:43.583Z,19.72
2018-09-30T14:15:09.077Z,19.72
2018-09-30T14:17:34.557Z,19.72
2018-09-30T14:20:00.224Z,19.71
2018-09-30T14:22:25.726Z,19.71
2018-09-30T14:24:51.196Z,19.71
2018-09-30T14:27:16.809Z,19.72
2018-09-30T14:29:42.180Z,19.72
2018-09-30T14:32:07.674Z,19.73
2018-09-30T14:34:33.391Z,19.73
2018-09-30T14:36:58.889Z,19.73
2018-09-30T14:39:24.423Z,19.71
2018-09-30T14:41:49.917Z,19.71
2018-09-30T14:44:15.438Z,19.71
2018-09-30T14:46:40.932Z,19.71
2018-09-30T14:49:06.558Z,19.71
2018-09-30T14:51:32.100Z,19.71
2018-09-30T14:53:57.637Z,19.72
2018-09-30T14:56:23.112Z,19.82
2018-09-30T14:58:48.619Z,19.88
2018-09-30T15:01:14.090Z,19.93
2018-09-30T15:03:39.626Z,19.91
2018-09-30T15:06:05.164Z,19.86
2018-09-30T15:08:30.791Z,19.83
2018-09-30T15:10:56.278Z,19.81
2018-09-30T15:13:21.779Z,19.82
2018-09-30T15:15:47.274Z,19.82
2018-09-30T15:18:12.755Z,19.81
2018-09-30T15:20:38.261Z,19.80
2018-09-30T15:23:03.748Z,19.81
2018-09-30T15:25:29.222Z,19.80
2018-09-30T15:27:54.714Z,19.79
2018-09-30T15:30:20.862Z,19.79
2018-09-30T15:32:46.370Z,19.79
2018-09-30T15:35:11.861Z,19.79
2018-09-30T15:37:37.371Z,19.79
2018-09-30T15:40:02.843Z,19.78
2018-09-30T15:42:28.319Z,19.78
2018-09-30T15:44:53.794Z,19.80
2018-09-30T15:47:19.293Z,19.81
2018-09-30T15:49:44.781Z,19.83
2018-09-30T15:52:10.281Z,19.83
2018-09-30T15:54:35.777Z,19.86
2018-09-30T15:57:01.290Z,19.86
2018-09-30T15:59:26.789Z,19.86
2018-09-30T16:01:52.272Z,19.85
2018-09-30T16:04:17.752Z,19.85
2018-09-30T16:06:43.225Z,19.85
2018-09-30T16:09:08.703Z,19.85
2018-09-30T16:11:34.187Z,19.84
2018-09-30T16:13:59.749Z,19.85
2018-09-30T16:16:25.247Z,19.84
2018-09-30T16:18:50.746Z,19.83
2018-09-30T16:21:16.252Z,19.82
2018-09-30T16:23:41.738Z,19.81
2018-09-30T16:26:07.241Z,19.81
2018-09-30T16:28:32.724Z,19.80
2018-09-30T16:30:58.853Z,19.80
2018-09-30T16:33:37.778Z,19.80
2018-09-30T16:36:06.511Z,19.80
2018-09-30T16:38:31.976Z,19.79
2018-09-30T16:40:57.545Z,19.78
2018-09-30T16:43:23.177Z,19.79
2018-09-30T16:45:48.674Z,19.79
2018-09-30T16:48:14.331Z,19.78
2018-09-30T16:50:40.116Z,19.78
2018-09-30T16:53:05.877Z,19.79
2018-09-30T16:55:31.546Z,19.80
2018-09-30T16:57:57.135Z,19.81
2018-09-30T17:00:22.631Z,19.80
2018-09-30T17:02:48.143Z,19.81
2018-09-30T17:05:13.684Z,19.83
2018-09-30T17:07:39.216Z,19.83
2018-09-30T17:10:04.739Z,19.84
2018-09-30T17:12:30.349Z,19.85
2018-09-30T17:14:55.826Z,19.84
2018-09-30T17:17:21.341Z,19.88
2018-09-30T17:19:46.837Z,19.94
2018-09-30T17:22:12.539Z,19.97
2018-09-30T17:24:38.359Z,19.99
2018-09-30T17:27:03.854Z,20.01
2018-09-30T17:29:29.438Z,20.03
2018-09-30T17:31:54.949Z,20.05
2018-09-30T17:34:20.441Z,20.02
2018-09-30T17:36:45.915Z,20.01
2018-09-30T17:39:11.391Z,20.05
2018-09-30T17:41:36.881Z,20.06
2018-09-30T17:44:02.488Z,20.08
2018-09-30T17:46:27.915Z,20.09
2018-09-30T17:48:53.376Z,20.08
2018-09-30T17:51:18.955Z,20.09
2018-09-30T17:53:44.353Z,20.11
2018-09-30T17:56:09.839Z,20.13
2018-09-30T17:58:35.371Z,20.15
2018-09-30T18:01:01.258Z,20.16
2018-09-30T18:03:27.384Z,20.16
2018-09-30T18:05:52.868Z,20.17
2018-09-30T18:08:18.534Z,20.17
2018-09-30T18:10:44.031Z,20.16
2018-09-30T18:13:09.871Z,20.16
2018-09-30T18:15:35.410Z,20.14
2018-09-30T18:18:00.943Z,20.12
2018-09-30T18:20:26.403Z,20.11
2018-09-30T18:22:51.910Z,20.09
2018-09-30T18:25:17.416Z,20.08
2018-09-30T18:27:43.306Z,20.08
2018-09-30T18:30:08.800Z,20.07
2018-09-30T18:32:34.669Z,20.04
2018-09-30T18:35:00.890Z,20.04
2018-09-30T18:37:26.390Z,20.02
2018-09-30T18:39:51.937Z,20.04
2018-09-30T18:42:17.700Z,20.03
2018-09-30T18:44:43.199Z,20.04
2018-09-30T18:47:08.916Z,20.09
2018-09-30T18:49:34.527Z,20.05
2018-09-30T18:52:00.029Z,20.03
2018-09-30T18:54:25.589Z,20.03
2018-09-30T18:56:51.084Z,20.02
2018-09-30T18:59:26.876Z,20.00
2018-09-30T19:01:52.373Z,20.00
2018-09-30T19:04:17.852Z,20.00
2018-09-30T19:06:43.356Z,19.98
2018-09-30T19:09:09.036Z,19.98
2018-09-30T19:11:35.869Z,19.98
2018-09-30T19:14:01.517Z,19.97
2018-09-30T19:16:27.085Z,19.97
2018-09-30T19:18:52.571Z,19.96
2018-09-30T19:21:18.043Z,19.95
2018-09-30T19:23:43.548Z,19.95
2018-09-30T19:26:09.053Z,19.96
2018-09-30T19:28:34.930Z,19.94
2018-09-30T19:31:00.432Z,19.95
2018-09-30T19:33:25.900Z,19.94
2018-09-30T19:35:51.408Z,19.95
2018-09-30T19:38:16.949Z,19.93
2018-09-30T19:40:42.472Z,19.94
2018-09-30T19:43:08.254Z,19.94
2018-09-30T19:45:33.751Z,19.94
2018-09-30T19:47:59.234Z,19.93
2018-09-30T19:50:24.726Z,19.94
2018-09-30T19:52:50.270Z,19.93
2018-09-30T19:55:15.762Z,19.94
2018-09-30T19:57:41.249Z,19.93
2018-09-30T20:00:06.747Z,19.92
2018-09-30T20:02:32.242Z,19.93
2018-09-30T20:04:57.714Z,19.93
2018-09-30T20:07:23.204Z,19.92
2018-09-30T20:09:48.744Z,19.92
2018-09-30T20:12:14.238Z,19.92
2018-09-30T20:14:39.738Z,19.91
2018-09-30T20:17:05.211Z,19.91
2018-09-30T20:19:30.742Z,19.91
2018-09-30T20:21:56.208Z,19.92
2018-09-30T20:24:21.686Z,19.90
2018-09-30T20:26:47.162Z,19.90
2018-09-30T20:29:12.637Z,19.90
2018-09-30T20:31:38.132Z,19.90
2018-09-30T20:34:03.599Z,19.90
2018-09-30T20:36:29.089Z,19.91
2018-09-30T20:38:54.584Z,19.92
2018-09-30T20:41:20.121Z,19.93
2018-09-30T20:43:45.619Z,19.92
2018-09-30T20:46:11.119Z,19.92
2018-09-30T20:48:36.724Z,19.92
2018-09-30T20:51:02.405Z,19.91
2018-09-30T20:53:27.911Z,19.90
2018-09-30T20:55:53.423Z,19.88
2018-09-30T20:58:18.860Z,19.87
2018-09-30T21:00:44.366Z,19.87
2018-09-30T21:03:09.863Z,19.85
2018-09-30T21:05:35.343Z,19.84
2018-09-30T21:08:00.831Z,19.83
2018-09-30T21:10:26.423Z,19.83
2018-09-30T21:12:51.834Z,19.82
2018-09-30T21:15:17.329Z,19.82
2018-09-30T21:17:42.827Z,19.82
2018-09-30T21:20:08.306Z,19.81
2018-09-30T21:22:33.785Z,19.81
2018-09-30T21:24:59.285Z,19.80
2018-09-30T21:27:24.840Z,19.80
2018-09-30T21:29:50.332Z,19.79
2018-09-30T21:32:15.881Z,19.79
2018-09-30T21:34:41.348Z,19.79
2018-09-30T21:37:06.848Z,19.79
2018-09-30T21:39:32.328Z,19.78
2018-09-30T21:41:57.836Z,19.77
2018-09-30T21:44:23.338Z,19.77
2018-09-30T21:46:48.831Z,19.77
2018-09-30T21:49:14.328Z,19.76
2018-09-30T21:51:39.811Z,19.76
2018-09-30T21:54:05.298Z,19.75
2018-09-30T21:56:30.794Z,19.75
2018-09-30T21:58:56.286Z,19.74
2018-09-30T22:01:21.849Z,19.74
2018-09-30T22:03:47.258Z,19.74
2018-09-30T22:06:12.768Z,19.75
2018-09-30T22:08:38.251Z,19.75
2018-09-30T22:11:03.791Z,19.75
2018-09-30T22:13:29.290Z,19.74
2018-09-30T22:15:54.786Z,19.74
2018-09-30T22:18:20.269Z,19.73
2018-09-30T22:20:45.772Z,19.73
2018-09-30T22:23:11.260Z,19.72
2018-09-30T22:25:36.752Z,19.73
2018-09-30T22:28:02.241Z,19.73
2018-09-30T22:30:27.739Z,19.72
2018-09-30T22:32:53.219Z,19.72
2018-09-30T22:35:18.687Z,19.71
2018-09-30T22:37:44.151Z,19.70
2018-09-30T22:40:09.656Z,19.70
2018-09-30T22:42:35.100Z,19.70
2018-09-30T22:45:00.594Z,19.70
2018-09-30T22:47:26.095Z,19.70
2018-09-30T22:49:51.587Z,19.69
2018-09-30T22:52:17.055Z,19.69
2018-09-30T22:54:42.591Z,19.69
2018-09-30T22:57:08.081Z,19.69
2018-09-30T22:59:33.553Z,19.69
2018-09-30T23:01:59.024Z,19.68
2018-09-30T23:04:24.541Z,19.69
2018-09-30T23:06:50.017Z,19.68
2018-09-30T23:09:15.520Z,19.68
2018-09-30T23:11:41.030Z,19.68
2018-09-30T23:14:06.525Z,19.67
2018-09-30T23:16:32.019Z,19.66
2018-09-30T23:18:57.511Z,19.67
2018-09-30T23:21:23.002Z,19.67
2018-09-30T23:23:48.474Z,19.66
2018-09-30T23:26:13.972Z,19.66
2018-09-30T23:28:39.462Z,19.66
2018-09-30T23:31:04.939Z,19.66
2018-09-30T23:33:30.435Z,19.66
2018-09-30T23:35:55.934Z,19.65
2018-09-30T23:38:21.405Z,19.65
2018-09-30T23:40:46.905Z,19.65
2018-09-30T23:43:12.397Z,19.65
2018-09-30T23:45:37.877Z,19.66
2018-09-30T23:48:03.374Z,19.65
2018-09-30T23:50:28.869Z,19.65
2018-09-30T23:52:54.365Z,19.65
2018-09-30T23:55:19.873Z,19.65
2018-09-30T23:57:45.380Z,19.65
